Time;durP1;ratioP1;P1;durP2;ratioP2;P2;SDS_P1;SDS_P2;PMS_P1;PMS_P2;Temp;Humidity;BMP_temperature;BMP_pressure;BME280_temperature;BME280_humidity;BME280_pressure;Samples;Min_cycle;Max_cycle;Signal;HPM_P1;HPM_P2
2022/05/21 00:02:07;;;;;;;14.07;8.35;;;13.20;99.90;;;;;;4975180;28;20035;-29
2022/05/21 00:04:34;;;;;;;8.68;6.50;;;13.20;99.90;;;;;;4973493;28;20086;-28
2022/05/21 00:06:59;;;;;;;13.02;7.45;;;13.20;99.90;;;;;;4978113;28;20104;-32
2022/05/21 00:09:27;;;;;;;10.38;6.75;;;13.20;99.90;;;;;;4978005;28;20106;-27
2022/05/21 00:11:53;;;;;;;15.88;8.07;;;13.30;99.90;;;;;;4971914;28;20386;-33
2022/05/21 00:14:20;;;;;;;19.63;7.35;;;13.30;99.90;;;;;;4975173;28;20045;-30
2022/05/21 00:16:46;;;;;;;16.55;7.30;;;13.20;99.90;;;;;;4977258;28;20026;-29
2022/05/21 00:19:12;;;;;;;19.67;7.10;;;13.20;99.90;;;;;;4976966;28;20486;-31
2022/05/21 00:21:38;;;;;;;13.38;6.93;;;13.30;99.90;;;;;;4971595;28;20034;-32
2022/05/21 00:24:04;;;;;;;9.15;6.68;;;13.20;99.90;;;;;;4976664;28;20097;-30
2022/05/21 00:26:29;;;;;;;21.30;6.45;;;13.20;99.90;;;;;;4971904;28;20113;-32
2022/05/21 00:28:55;;;;;;;12.90;6.65;;;13.20;99.90;;;;;;4969242;28;20501;-32
2022/05/21 00:31:20;;;;;;;12.05;6.50;;;13.20;99.90;;;;;;4976499;28;20058;-29
2022/05/21 00:33:47;;;;;;;9.32;5.72;;;13.30;99.90;;;;;;4975373;28;20027;-30
2022/05/21 00:36:13;;;;;;;16.63;7.18;;;13.30;99.90;;;;;;4977374;28;20026;-31
2022/05/21 00:38:40;;;;;;;14.52;5.93;;;13.30;99.90;;;;;;4970993;28;20407;-29
2022/05/21 00:41:08;;;;;;;17.33;6.85;;;13.30;99.90;;;;;;4976707;28;20549;-27
2022/05/21 00:43:36;;;;;;;17.35;6.25;;;13.30;99.90;;;;;;4969809;28;20031;-36
2022/05/21 00:46:03;;;;;;;14.15;6.15;;;13.40;99.90;;;;;;4972515;28;20034;-30
2022/05/21 00:48:29;;;;;;;10.38;6.20;;;13.30;99.90;;;;;;4975016;28;20129;-28
2022/05/21 00:50:55;;;;;;;14.63;6.43;;;13.30;99.90;;;;;;4975336;28;20026;-31
2022/05/21 00:53:21;;;;;;;11.70;5.07;;;13.30;99.90;;;;;;4974879;28;20106;-33
2022/05/21 00:55:48;;;;;;;17.38;6.38;;;13.30;99.90;;;;;;4973812;28;20035;-29
2022/05/21 01:01:01;;;;;;;17.10;6.03;;;13.30;99.90;;;;;;4974599;28;20518;-28
2022/05/21 01:03:28;;;;;;;18.83;6.55;;;13.30;99.90;;;;;;4974162;28;20059;-31
2022/05/21 01:05:54;;;;;;;11.60;5.97;;;13.30;99.90;;;;;;4975452;28;20039;-30
2022/05/21 01:08:20;;;;;;;16.75;6.85;;;13.40;99.90;;;;;;4974969;28;20031;-34
2022/05/21 01:10:53;;;;;;;16.48;6.90;;;13.40;99.90;;;;;;4975713;28;20121;-29
2022/05/21 01:13:21;;;;;;;9.93;6.32;;;13.40;99.90;;;;;;4972141;28;20038;-33
2022/05/21 01:15:51;;;;;;;20.65;5.68;;;13.40;99.90;;;;;;4973685;28;20547;-31
2022/05/21 01:18:16;;;;;;;17.55;6.65;;;13.40;99.90;;;;;;4973836;28;20512;-31
2022/05/21 01:20:48;;;;;;;15.85;6.43;;;13.40;99.90;;;;;;4976726;28;20031;-30
2022/05/21 01:23:18;;;;;;;18.80;6.35;;;13.50;99.90;;;;;;4971265;28;20113;-33
2022/05/21 01:25:46;;;;;;;15.50;6.45;;;13.40;99.90;;;;;;4965251;28;20019;-33
2022/05/21 01:28:14;;;;;;;19.05;6.85;;;13.50;99.90;;;;;;4975834;28;20027;-34
2022/05/21 01:30:46;;;;;;;20.90;6.50;;;13.50;99.90;;;;;;4975062;28;20027;-31
2022/05/21 01:33:14;;;;;;;13.10;5.75;;;13.50;99.90;;;;;;4973153;28;20038;-28
2022/05/21 01:35:42;;;;;;;22.65;6.93;;;13.50;99.90;;;;;;4956897;28;20094;-33
2022/05/21 01:38:09;;;;;;;14.45;6.45;;;13.50;99.90;;;;;;4974195;28;20062;-29
2022/05/21 01:40:35;;;;;;;13.32;6.10;;;13.50;99.90;;;;;;4976260;28;20026;-36
2022/05/21 01:45:45;;;;;;;15.20;6.57;;;13.50;99.90;;;;;;4976302;28;20116;-43
2022/05/21 01:48:11;;;;;;;24.13;6.82;;;13.60;99.90;;;;;;4973499;28;20470;-34
2022/05/21 01:50:38;;;;;;;10.88;6.18;;;13.60;99.90;;;;;;4973468;28;20081;-33
2022/05/21 01:53:04;;;;;;;20.98;6.53;;;13.60;99.90;;;;;;4974245;28;20027;-29
2022/05/21 01:55:30;;;;;;;19.20;6.40;;;13.60;99.90;;;;;;4974133;28;20471;-35
2022/05/21 01:57:56;;;;;;;11.15;5.45;;;13.60;99.90;;;;;;4974076;28;20023;-32
2022/05/21 02:00:22;;;;;;;13.75;5.75;;;13.60;99.90;;;;;;4964511;28;20034;-28
2022/05/21 02:02:47;;;;;;;22.25;5.82;;;13.60;99.90;;;;;;4974046;28;20372;-30
2022/05/21 02:05:13;;;;;;;16.85;6.30;;;13.70;99.90;;;;;;4970898;28;20027;-32
2022/05/21 02:07:38;;;;;;;15.30;7.07;;;13.70;99.90;;;;;;4966998;28;20040;-27
2022/05/21 02:10:05;;;;;;;15.05;5.75;;;13.70;99.90;;;;;;4962610;28;20031;-28
2022/05/21 02:12:31;;;;;;;23.10;7.78;;;13.70;99.90;;;;;;4971681;28;20047;-30
2022/05/21 02:14:56;;;;;;;19.20;6.15;;;13.70;99.90;;;;;;4975312;28;20030;-28
2022/05/21 02:17:23;;;;;;;21.15;6.95;;;13.70;99.90;;;;;;4973786;28;20027;-31
2022/05/21 02:19:48;;;;;;;14.40;5.47;;;13.70;99.90;;;;;;4975615;28;20014;-35
2022/05/21 02:22:15;;;;;;;19.60;5.65;;;13.70;99.90;;;;;;4972293;28;20023;-31
2022/05/21 02:24:41;;;;;;;18.55;4.68;;;13.70;99.90;;;;;;4973857;28;20430;-30
2022/05/21 02:27:11;;;;;;;12.88;4.85;;;13.80;99.90;;;;;;4971976;28;20034;-35
2022/05/21 02:29:37;;;;;;;13.18;3.88;;;13.80;99.90;;;;;;4974266;28;20483;-30
2022/05/21 02:32:04;;;;;;;12.57;4.50;;;13.80;99.90;;;;;;4971907;28;20027;-28
2022/05/21 02:34:30;;;;;;;24.83;4.53;;;13.80;99.90;;;;;;4972873;28;20018;-30
2022/05/21 02:39:40;;;;;;;16.02;3.03;;;13.90;99.90;;;;;;4971830;28;20145;-31
2022/05/21 02:42:42;;;;;;;19.30;4.88;;;13.90;99.90;;;;;;4974925;28;20027;-32
2022/05/21 02:44:51;;;;;;;13.93;2.70;;;13.90;99.90;;;;;;4973149;28;20027;-31
2022/05/21 02:47:17;;;;;;;16.35;2.88;;;13.90;99.90;;;;;;4973715;28;20033;-32
2022/05/21 02:49:42;;;;;;;16.83;4.15;;;13.90;99.90;;;;;;4973931;28;20034;-30
2022/05/21 02:52:08;;;;;;;13.25;3.05;;;13.90;99.90;;;;;;4972225;28;20038;-32
2022/05/21 02:54:33;;;;;;;18.33;2.47;;;13.90;99.90;;;;;;4967666;28;20122;-28
2022/05/21 02:56:59;;;;;;;14.23;2.60;;;13.90;99.90;;;;;;4967608;28;20070;-28
2022/05/21 02:59:26;;;;;;;15.55;3.28;;;13.90;99.90;;;;;;4972380;28;20114;-32
2022/05/21 03:01:51;;;;;;;10.35;2.75;;;13.90;99.90;;;;;;4969957;28;20027;-31
2022/05/21 03:04:17;;;;;;;11.52;2.22;;;13.90;99.90;;;;;;4973915;28;20082;-31
2022/05/21 03:06:43;;;;;;;12.13;2.75;;;13.90;99.90;;;;;;4975048;28;20050;-31
2022/05/21 03:11:52;;;;;;;7.75;2.30;;;13.80;99.90;;;;;;4962690;28;20038;-28
2022/05/21 03:14:18;;;;;;;11.65;2.38;;;13.80;99.90;;;;;;4966467;28;20026;-29
2022/05/21 03:16:44;;;;;;;16.30;2.88;;;13.70;99.90;;;;;;4971826;28;20106;-30
2022/05/21 03:19:09;;;;;;;18.10;3.00;;;13.70;99.90;;;;;;4973464;28;20455;-30
2022/05/21 03:21:35;;;;;;;10.57;2.33;;;13.70;99.90;;;;;;4973983;28;20031;-27
2022/05/21 03:24:00;;;;;;;13.35;2.25;;;13.70;99.90;;;;;;4974642;28;20051;-42
2022/05/21 03:26:26;;;;;;;14.13;2.78;;;13.60;99.90;;;;;;4955859;28;20480;-31
2022/05/21 03:28:52;;;;;;;21.65;2.83;;;13.60;99.90;;;;;;4971564;28;20038;-31
2022/05/21 03:31:18;;;;;;;14.98;2.30;;;13.60;99.90;;;;;;4972754;28;20471;-31
2022/05/21 03:33:44;;;;;;;20.55;2.55;;;13.60;99.90;;;;;;4972388;28;20023;-29
2022/05/21 03:36:09;;;;;;;16.88;3.22;;;13.60;99.90;;;;;;4973752;28;20031;-31
2022/05/21 03:38:35;;;;;;;20.13;2.53;;;13.50;99.90;;;;;;4973681;28;20081;-33
2022/05/21 03:41:01;;;;;;;15.30;2.78;;;13.50;99.90;;;;;;4955424;28;20023;-32
2022/05/21 03:43:26;;;;;;;22.25;2.78;;;13.50;99.90;;;;;;4968526;28;20158;-30
2022/05/21 03:45:52;;;;;;;11.25;2.70;;;13.50;99.90;;;;;;4971519;28;20034;-30
2022/05/21 03:48:18;;;;;;;17.45;3.00;;;13.50;99.90;;;;;;4969367;28;20110;-30
2022/05/21 03:50:43;;;;;;;8.10;2.33;;;13.50;99.90;;;;;;4967221;28;20023;-27
2022/05/21 03:53:10;;;;;;;23.83;2.75;;;13.50;99.90;;;;;;4955029;29;20468;-32
2022/05/21 03:55:37;;;;;;;18.88;2.88;;;13.50;99.90;;;;;;4955282;29;20019;-35
2022/05/21 03:58:03;;;;;;;11.23;2.63;;;13.40;99.90;;;;;;4964672;28;20062;-32
2022/05/21 04:00:29;;;;;;;15.93;2.83;;;13.50;99.90;;;;;;4971776;28;20039;-28
2022/05/21 04:02:56;;;;;;;12.98;3.22;;;13.50;99.90;;;;;;4972033;28;20022;-29
2022/05/21 04:05:22;;;;;;;16.02;2.72;;;13.40;99.90;;;;;;4974266;28;20034;-29
2022/05/21 04:07:48;;;;;;;18.55;2.05;;;13.40;99.90;;;;;;4967894;28;20475;-29
2022/05/21 04:10:16;;;;;;;9.00;1.88;;;13.40;99.90;;;;;;4972634;28;20070;-29
2022/05/21 04:12:41;;;;;;;;;;;13.40;99.90;;;;;;4973674;28;20406;-28
2022/05/21 04:15:08;;;;;;;13.13;2.67;;;13.40;99.90;;;;;;4968472;28;19919;-33
2022/05/21 04:17:35;;;;;;;11.88;2.60;;;13.40;99.90;;;;;;4968216;28;20506;-28
2022/05/21 04:20:02;;;;;;;14.60;3.43;;;13.30;99.90;;;;;;4967336;28;20027;-29
2022/05/21 04:22:28;;;;;;;11.30;2.17;;;13.40;99.90;;;;;;4969736;28;20019;-29
2022/05/21 04:24:53;;;;;;;7.32;1.90;;;13.40;99.90;;;;;;4972035;28;20504;-31
2022/05/21 04:27:19;;;;;;;13.43;2.33;;;13.40;99.90;;;;;;4973042;28;20513;-28
2022/05/21 04:29:45;;;;;;;18.02;3.17;;;13.40;99.90;;;;;;4965450;28;20097;-32
2022/05/21 04:32:10;;;;;;;15.75;2.03;;;13.40;99.90;;;;;;4973947;28;20068;-31
2022/05/21 04:34:36;;;;;;;14.60;2.45;;;13.30;99.90;;;;;;4971140;28;20497;-33
2022/05/21 04:37:03;;;;;;;10.20;1.67;;;13.40;99.90;;;;;;4974869;28;20078;-29
2022/05/21 04:39:29;;;;;;;11.00;2.40;;;13.40;99.90;;;;;;4976910;28;20452;-32
2022/05/21 04:41:55;;;;;;;7.95;2.08;;;13.40;99.90;;;;;;4976807;28;20035;-29
2022/05/21 04:44:22;;;;;;;9.60;1.67;;;13.40;99.90;;;;;;4976495;28;20467;-30
2022/05/21 04:46:47;;;;;;;17.15;2.05;;;13.30;99.90;;;;;;4965368;28;20549;-32
2022/05/21 04:49:13;;;;;;;13.85;1.90;;;13.30;99.90;;;;;;4973160;28;20030;-30
2022/05/21 04:51:38;;;;;;;17.80;3.35;;;13.40;99.90;;;;;;4977389;28;20492;-33
2022/05/21 04:54:04;;;;;;;16.05;2.45;;;13.30;99.90;;;;;;4974630;28;20030;-40
2022/05/21 04:56:31;;;;;;;9.90;1.63;;;13.30;99.90;;;;;;4961847;28;20031;-30
2022/05/21 04:58:58;;;;;;;15.32;2.17;;;13.40;99.90;;;;;;4977228;28;20031;-31
2022/05/21 05:01:23;;;;;;;14.10;1.48;;;13.40;99.90;;;;;;4974069;28;20097;-34
2022/05/21 05:03:49;;;;;;;8.40;1.65;;;13.40;99.90;;;;;;4966510;28;20027;-27
2022/05/21 05:06:15;;;;;;;8.93;1.90;;;13.40;99.90;;;;;;4974021;28;20026;-36
2022/05/21 05:08:40;;;;;;;11.52;2.35;;;13.50;99.90;;;;;;4975601;28;20030;-28
2022/05/21 05:11:06;;;;;;;12.40;1.85;;;13.50;99.90;;;;;;4962278;28;20027;-31
2022/05/21 05:13:32;;;;;;;17.00;2.00;;;13.50;99.90;;;;;;4969475;28;20077;-33
2022/05/21 05:15:57;;;;;;;18.23;2.17;;;13.50;99.90;;;;;;4974596;28;20027;-33
2022/05/21 05:18:23;;;;;;;13.95;2.08;;;13.50;99.90;;;;;;4973340;28;20014;-34
2022/05/21 05:20:49;;;;;;;15.18;2.00;;;13.60;99.90;;;;;;4975573;28;20026;-30
2022/05/21 05:23:16;;;;;;;19.52;2.50;;;13.60;99.90;;;;;;4972041;28;20357;-34
2022/05/21 05:25:42;;;;;;;13.05;1.88;;;13.70;99.90;;;;;;4972869;28;20022;-30
2022/05/21 05:28:22;;;;;;;7.50;1.70;;;13.70;99.90;;;;;;4975829;28;20439;-35
2022/05/21 05:30:48;;;;;;;11.50;2.28;;;13.80;99.90;;;;;;4975916;28;20041;-28
2022/05/21 05:33:14;;;;;;;24.05;3.13;;;13.80;99.90;;;;;;4974782;28;20027;-30
2022/05/21 05:35:40;;;;;;;11.43;2.20;;;13.80;99.90;;;;;;4976614;28;20022;-31
2022/05/21 05:38:11;;;;;;;9.80;1.60;;;13.90;99.90;;;;;;4976009;28;20494;-32
2022/05/21 05:40:39;;;;;;;9.88;2.17;;;13.90;99.90;;;;;;4975757;28;20395;-32
2022/05/21 05:43:05;;;;;;;14.00;2.03;;;14.00;99.90;;;;;;4976900;28;20415;-31
2022/05/21 05:45:31;;;;;;;11.63;1.73;;;14.10;99.90;;;;;;4974140;28;20493;-31
2022/05/21 05:47:57;;;;;;;17.30;2.13;;;14.10;99.90;;;;;;4975498;28;20121;-29
2022/05/21 05:50:23;;;;;;;10.85;2.08;;;14.10;99.90;;;;;;4973113;28;20062;-33
2022/05/21 05:52:49;;;;;;;13.15;2.30;;;14.20;99.90;;;;;;4974015;28;20022;-29
2022/05/21 05:55:15;;;;;;;17.90;2.28;;;14.20;99.90;;;;;;4972264;28;20030;-28
2022/05/21 05:57:41;;;;;;;13.07;2.90;;;14.30;99.90;;;;;;4973244;28;20093;-27
2022/05/21 06:00:08;;;;;;;8.48;2.08;;;14.40;99.90;;;;;;4975016;28;20042;-30
2022/05/21 06:05:24;;;;;;;11.48;1.65;;;14.60;99.90;;;;;;4971687;28;20057;-33
2022/05/21 06:07:55;;;;;;;17.77;2.88;;;14.60;99.90;;;;;;4974729;28;20027;-33
2022/05/21 06:10:28;;;;;;;10.60;2.13;;;14.70;99.90;;;;;;4974007;28;20031;-30
2022/05/21 06:12:54;;;;;;;11.05;2.08;;;14.80;99.90;;;;;;4973577;28;20043;-32
2022/05/21 06:15:20;;;;;;;15.30;2.58;;;14.70;99.90;;;;;;4975778;28;20026;-27
2022/05/21 06:17:46;;;;;;;7.22;1.85;;;14.80;99.90;;;;;;4975685;28;20053;-27
2022/05/21 06:20:15;;;;;;;13.70;1.98;;;15.80;99.90;;;;;;4975527;28;20037;-28
2022/05/21 06:22:41;;;;;;;17.95;2.97;;;17.20;99.90;;;;;;4972477;28;20080;-29
2022/05/21 06:25:08;;;;;;;12.35;1.75;;;18.20;99.90;;;;;;4974950;28;20498;-29
2022/05/21 06:27:33;;;;;;;11.88;2.75;;;18.10;99.90;;;;;;4972373;28;20121;-27
2022/05/21 06:29:59;;;;;;;8.73;2.30;;;17.30;99.90;;;;;;4972763;28;20146;-29
2022/05/21 06:32:25;;;;;;;16.23;4.28;;;16.70;99.90;;;;;;4974512;28;20034;-36
2022/05/21 06:34:50;;;;;;;7.50;1.58;;;16.70;99.90;;;;;;4974177;28;20037;-33
2022/05/21 06:37:16;;;;;;;11.10;2.15;;;16.80;99.90;;;;;;4975360;28;20487;-30
2022/05/21 06:39:42;;;;;;;14.75;1.35;;;16.80;99.90;;;;;;4975583;28;20035;-30
2022/05/21 06:42:09;;;;;;;10.40;2.08;;;16.80;99.90;;;;;;4973974;28;20030;-27
2022/05/21 06:44:35;;;;;;;17.67;2.13;;;17.10;99.90;;;;;;4975347;28;20061;-32
2022/05/21 06:47:02;;;;;;;11.25;1.58;;;17.50;99.90;;;;;;4974526;28;20086;-32
2022/05/21 06:49:28;;;;;;;8.30;1.25;;;18.10;99.90;;;;;;4973132;28;20483;-33
2022/05/21 06:51:55;;;;;;;12.52;1.52;;;18.20;99.90;;;;;;4974038;28;20029;-31
2022/05/21 06:54:22;;;;;;;7.63;1.37;;;18.80;99.90;;;;;;4973532;28;20031;-33
2022/05/21 06:56:48;;;;;;;12.60;1.87;;;19.40;99.90;;;;;;4975055;28;20350;-28
2022/05/21 06:59:13;;;;;;;11.90;1.70;;;19.80;99.90;;;;;;4975413;28;20058;-30
2022/05/21 07:01:40;;;;;;;16.45;2.03;;;20.10;99.90;;;;;;4970894;28;20499;-32
2022/05/21 07:04:05;;;;;;;8.02;1.95;;;20.00;99.90;;;;;;4973581;28;20487;-29
2022/05/21 07:09:15;;;;;;;16.30;1.95;;;19.60;99.90;;;;;;4955719;29;20045;-28
2022/05/21 07:11:41;;;;;;;6.60;1.55;;;19.30;99.90;;;;;;4970072;28;20113;-34
2022/05/21 07:14:06;;;;;;;6.65;1.48;;;19.10;99.90;;;;;;4971855;28;20042;-30
2022/05/21 07:16:32;;;;;;;10.02;1.88;;;18.20;99.90;;;;;;4970995;28;20057;-30
2022/05/21 07:18:58;;;;;;;7.88;1.50;;;17.80;99.90;;;;;;4967660;28;20031;-29
2022/05/21 07:21:23;;;;;;;7.20;1.42;;;18.60;99.90;;;;;;4978295;28;20031;-29
2022/05/21 07:23:49;;;;;;;15.27;2.63;;;19.10;99.90;;;;;;4969872;28;20023;-31
2022/05/21 07:26:17;;;;;;;13.85;1.88;;;18.90;99.90;;;;;;4973469;28;20057;-33
2022/05/21 07:28:42;;;;;;;9.00;2.47;;;18.60;99.90;;;;;;4973636;28;20038;-33
2022/05/21 07:31:08;;;;;;;7.75;1.67;;;18.60;99.90;;;;;;4972581;28;20027;-29
2022/05/21 07:33:34;;;;;;;22.60;2.17;;;18.50;99.90;;;;;;4970036;28;20516;-33
2022/05/21 07:36:00;;;;;;;8.38;1.92;;;17.70;99.90;;;;;;4970248;28;20027;-36
2022/05/21 07:38:26;;;;;;;9.65;3.55;;;17.40;99.90;;;;;;4970909;28;20410;-35
2022/05/21 07:40:53;;;;;;;19.40;3.25;;;17.30;99.90;;;;;;4972293;28;20019;-29
2022/05/21 07:43:27;;;;;;;5.40;1.50;;;17.30;99.90;;;;;;4963219;28;20027;-29
2022/05/21 07:45:54;;;;;;;9.40;1.58;;;17.60;99.90;;;;;;4973899;28;20113;-35
2022/05/21 07:48:21;;;;;;;11.93;1.95;;;17.60;99.90;;;;;;4969938;28;20037;-33
2022/05/21 07:50:54;;;;;;;16.05;1.70;;;17.10;99.90;;;;;;4970000;28;20467;-29
2022/05/21 07:53:23;;;;;;;6.38;1.90;;;17.00;99.90;;;;;;4970023;28;20483;-28
2022/05/21 07:55:51;;;;;;;7.68;1.70;;;16.90;99.90;;;;;;4966523;28;20116;-30
2022/05/21 07:58:18;;;;;;;13.55;1.90;;;17.20;99.90;;;;;;4971859;28;20027;-32
2022/05/21 08:00:44;;;;;;;3.90;1.48;;;17.70;99.90;;;;;;4953803;28;20043;-32
2022/05/21 08:03:11;;;;;;;12.27;1.50;;;17.70;99.90;;;;;;4957465;28;20395;-27
2022/05/21 08:05:38;;;;;;;12.27;1.37;;;17.90;99.90;;;;;;4971014;28;20031;-31
2022/05/21 08:08:04;;;;;;;12.98;2.20;;;18.00;99.90;;;;;;4968535;28;20475;-33
2022/05/21 08:10:30;;;;;;;11.00;1.63;;;18.20;99.90;;;;;;4970383;28;20092;-35
2022/05/21 08:12:57;;;;;;;5.75;1.58;;;18.10;99.90;;;;;;4973154;28;20118;-33
2022/05/21 08:15:22;;;;;;;9.63;1.80;;;18.10;99.90;;;;;;4977135;28;20027;-30
2022/05/21 08:17:48;;;;;;;6.63;2.22;;;18.40;99.90;;;;;;4971387;28;20077;-32
2022/05/21 08:20:15;;;;;;;8.77;1.55;;;18.70;99.90;;;;;;4971196;28;20031;-30
2022/05/21 08:28:13;;;;;;;8.30;2.45;;;18.30;99.90;;;;;;4982273;28;20162;-34
2022/05/21 08:30:40;;;;;;;11.20;2.28;;;18.00;99.90;;;;;;4968620;28;20085;-32
2022/05/21 08:33:06;;;;;;;10.15;2.53;;;18.10;99.90;;;;;;4967630;28;20026;-32
2022/05/21 08:35:32;;;;;;;15.13;2.28;;;18.30;99.90;;;;;;4975368;28;20055;-32
2022/05/21 08:37:58;;;;;;;13.43;2.47;;;18.40;99.90;;;;;;4975577;28;20027;-45
2022/05/21 08:40:40;;;;;;;9.82;1.95;;;18.40;99.90;;;;;;4976369;28;20029;-36
2022/05/21 08:43:20;;;;;;;8.15;1.70;;;18.00;99.90;;;;;;4976516;28;20031;-36
2022/05/21 08:46:15;;;;;;;13.25;1.67;;;17.90;99.90;;;;;;4971750;28;20027;-37
2022/05/21 08:48:52;;;;;;;10.82;2.20;;;17.90;99.90;;;;;;4973718;28;20390;-36
2022/05/21 08:51:23;;;;;;;8.75;1.40;;;17.90;99.90;;;;;;4973549;28;20030;-35
2022/05/21 08:53:51;;;;;;;9.20;1.77;;;18.10;99.90;;;;;;4974437;28;20031;-35
2022/05/21 08:56:18;;;;;;;12.80;2.30;;;18.30;99.90;;;;;;4966540;28;20109;-36
2022/05/21 08:58:48;;;;;;;10.57;2.60;;;18.70;99.90;;;;;;4974000;28;20030;-35
2022/05/21 09:01:20;;;;;;;3.63;1.42;;;18.90;99.90;;;;;;4975623;28;20491;-34
2022/05/21 09:03:47;;;;;;;6.68;2.15;;;18.60;99.90;;;;;;4974301;28;20031;-35
2022/05/21 09:06:19;;;;;;;13.20;2.53;;;18.30;99.90;;;;;;4968521;28;20498;-36
2022/05/21 09:08:55;;;;;;;17.95;2.67;;;18.30;99.90;;;;;;4970539;28;20503;-34
2022/05/21 09:11:47;;;;;;;12.52;2.60;;;18.40;99.90;;;;;;4973551;28;20517;-35
2022/05/21 09:14:32;;;;;;;8.32;1.75;;;18.30;99.90;;;;;;4971452;28;20576;-36
2022/05/21 09:17:00;;;;;;;16.33;2.92;;;17.70;99.90;;;;;;4976314;28;20026;-36
2022/05/21 09:19:34;;;;;;;12.20;2.17;;;17.30;99.90;;;;;;4970944;28;20027;-35
2022/05/21 09:22:07;;;;;;;16.15;2.22;;;17.30;99.90;;;;;;4972877;28;20113;-35
2022/05/21 09:24:43;;;;;;;6.10;1.10;;;17.40;99.90;;;;;;4975075;28;20027;-36
2022/05/21 09:27:24;;;;;;;12.52;1.98;;;17.60;99.90;;;;;;4973509;28;20512;-36
2022/05/21 09:29:52;;;;;;;12.13;2.13;;;17.50;99.90;;;;;;4974038;28;20482;-35
2022/05/21 09:32:30;;;;;;;14.13;1.70;;;17.50;99.90;;;;;;4973339;28;20438;-34
2022/05/21 09:35:12;;;;;;;4.75;1.50;;;17.50;99.90;;;;;;4974956;28;20114;-35
2022/05/21 09:37:40;;;;;;;4.57;1.98;;;17.40;99.90;;;;;;4971763;28;20107;-28
2022/05/21 09:40:24;;;;;;;13.95;1.60;;;17.60;99.90;;;;;;4972735;28;20031;-28
2022/05/21 09:45:39;;;;;;;11.45;2.08;;;17.60;99.90;;;;;;4972365;28;20050;-26
2022/05/21 09:48:05;;;;;;;7.38;1.45;;;17.60;99.90;;;;;;4966674;28;20655;-28
2022/05/21 09:50:44;;;;;;;7.38;1.70;;;17.60;99.90;;;;;;4970930;28;20031;-28
2022/05/21 09:53:28;;;;;;;14.85;2.00;;;17.50;99.90;;;;;;4970543;28;20608;-33
2022/05/21 09:56:00;;;;;;;4.22;1.52;;;17.60;99.90;;;;;;4967970;28;20026;-30
2022/05/21 09:58:27;;;;;;;6.70;1.20;;;17.60;99.90;;;;;;4966057;28;20023;-32
2022/05/21 10:00:55;;;;;;;8.00;1.95;;;17.80;99.90;;;;;;4965600;28;20031;-35
2022/05/21 10:03:37;;;;;;;7.82;1.52;;;18.00;99.90;;;;;;4964977;28;20023;-30
2022/05/21 10:06:07;;;;;;;13.35;2.10;;;18.10;99.90;;;;;;4966317;28;20039;-31
2022/05/21 10:11:30;;;;;;;15.57;2.78;;;17.70;99.90;;;;;;4965514;28;20567;-29
2022/05/21 10:14:08;;;;;;;9.93;1.70;;;17.70;99.90;;;;;;4964066;28;20055;-38
2022/05/21 10:17:01;;;;;;;8.90;1.83;;;17.70;99.90;;;;;;4970587;28;20045;-31
2022/05/21 10:19:53;;;;;;;9.35;1.88;;;17.60;99.90;;;;;;4962942;28;20050;-34
2022/05/21 10:22:30;;;;;;;5.15;1.70;;;17.60;99.90;;;;;;4966046;28;20049;-32
2022/05/21 10:25:09;;;;;;;10.50;2.40;;;17.40;99.90;;;;;;4965994;28;20030;-27
2022/05/21 10:28:03;;;;;;;4.80;1.27;;;17.40;99.90;;;;;;4965817;28;20616;-29
2022/05/21 10:31:05;;;;;;;6.40;1.45;;;17.50;99.90;;;;;;4950020;28;20046;-34
2022/05/21 10:33:49;;;;;;;10.43;1.48;;;17.80;99.90;;;;;;4965065;28;20085;-29
2022/05/21 10:36:36;;;;;;;8.32;1.48;;;18.00;99.90;;;;;;4963694;28;20031;-30
2022/05/21 10:39:21;;;;;;;14.35;1.88;;;18.00;99.90;;;;;;4962476;28;20023;-31
2022/05/21 10:42:22;;;;;;;4.78;1.52;;;18.00;99.90;;;;;;4965990;28;20077;-32
2022/05/21 10:45:08;;;;;;;8.27;1.80;;;18.10;99.90;;;;;;4962279;28;20800;-29
2022/05/21 10:47:56;;;;;;;10.77;2.13;;;18.00;99.90;;;;;;4966123;28;20038;-37
2022/05/21 10:50:43;;;;;;;17.33;1.30;;;17.80;99.90;;;;;;4965165;28;20058;-27
2022/05/21 10:53:17;;;;;;;6.00;1.15;;;17.20;99.90;;;;;;4969669;28;20088;-27
2022/05/21 10:56:01;;;;;;;5.78;1.60;;;17.10;99.90;;;;;;4967493;28;20054;-29
2022/05/21 10:58:49;;;;;;;6.10;1.35;;;17.10;99.90;;;;;;4963740;28;20031;-30
2022/05/21 11:01:16;;;;;;;;;;;17.20;99.90;;;;;;4967376;28;20482;-29
2022/05/21 11:03:48;;;;;;;;;;;17.30;99.90;;;;;;4962125;28;20005;-35
2022/05/21 11:06:44;;;;;;;9.18;1.75;;;17.50;99.90;;;;;;4963019;28;19914;-30
2022/05/21 11:09:30;;;;;;;10.77;2.15;;;17.70;99.90;;;;;;4963434;28;20038;-31
2022/05/21 11:12:08;;;;;;;6.43;1.70;;;17.70;99.90;;;;;;4961808;28;20034;-27
2022/05/21 11:14:34;;;;;;;10.63;1.90;;;17.90;99.90;;;;;;4952727;28;20130;-31
2022/05/21 11:17:27;;;;;;;10.32;2.00;;;18.10;99.90;;;;;;4961734;28;20141;-37
2022/05/21 11:20:17;;;;;;;7.18;1.42;;;17.70;99.90;;;;;;4961452;28;20549;-30
2022/05/21 11:23:06;;;;;;;7.05;2.08;;;17.60;99.90;;;;;;4968399;28;20513;-29
2022/05/21 11:25:48;;;;;;;7.68;2.05;;;17.70;99.90;;;;;;4960634;28;20023;-31
2022/05/21 11:28:54;;;;;;;13.40;3.00;;;17.90;99.90;;;;;;4957176;28;20467;-32
2022/05/21 11:37:21;;;;;;;11.05;1.90;;;18.40;99.90;;;;;;4960302;28;20857;-29
2022/05/21 11:39:48;;;;;;;9.65;2.13;;;18.30;99.90;;;;;;4963725;28;20490;-30
2022/05/21 11:42:16;;;;;;;16.73;2.58;;;18.40;99.90;;;;;;4962014;28;20593;-31
2022/05/21 11:44:55;;;;;;;9.13;1.98;;;18.60;99.90;;;;;;4961701;28;20031;-29
2022/05/21 11:47:21;;;;;;;10.75;1.70;;;18.50;99.90;;;;;;4961983;28;20023;-29
2022/05/21 11:49:56;;;;;;;11.02;2.45;;;18.90;99.90;;;;;;4960910;28;20077;-37
2022/05/21 11:52:27;;;;;;;12.80;1.63;;;19.10;99.90;;;;;;4960526;28;20027;-33
2022/05/21 11:54:53;;;;;;;9.73;2.35;;;18.80;99.90;;;;;;4957799;28;20550;-28
2022/05/21 11:57:35;;;;;;;9.52;1.67;;;18.70;99.90;;;;;;4955012;28;20035;-28
2022/05/21 12:00:08;;;;;;;5.85;2.40;;;18.20;99.90;;;;;;4964929;28;20034;-37
2022/05/21 12:02:36;;;;;;;8.68;2.10;;;18.20;99.90;;;;;;4964082;28;20047;-33
2022/05/21 12:05:10;;;;;;;6.85;1.90;;;18.20;99.90;;;;;;4965473;28;20479;-33
2022/05/21 12:07:44;;;;;;;8.18;1.95;;;18.30;99.90;;;;;;4964350;28;20030;-30
2022/05/21 12:10:10;;;;;;;14.15;1.98;;;18.10;99.90;;;;;;4963062;28;20493;-30
2022/05/21 12:13:11;;;;;;;10.57;2.17;;;17.70;99.90;;;;;;4963157;28;20023;-29
2022/05/21 12:15:41;;;;;;;9.80;1.63;;;17.50;99.90;;;;;;4964511;28;20085;-35
2022/05/21 12:18:32;;;;;;;6.75;1.60;;;17.40;99.90;;;;;;4960696;28;20483;-36
2022/05/21 12:20:57;;;;;;;7.63;1.70;;;17.50;99.90;;;;;;4960448;28;20037;-34
2022/05/21 12:23:32;;;;;;;8.45;1.70;;;17.40;99.90;;;;;;4961558;28;20467;-30
2022/05/21 12:26:21;;;;;;;9.13;1.50;;;17.30;99.90;;;;;;4963334;28;20046;-27
2022/05/21 12:28:52;;;;;;;8.90;2.22;;;17.30;99.90;;;;;;4958303;28;20038;-28
2022/05/21 12:31:27;;;;;;;9.35;3.10;;;17.50;99.90;;;;;;4963055;28;20483;-30
2022/05/21 12:34:03;;;;;;;9.25;1.58;;;18.10;99.90;;;;;;4963396;28;20034;-31
2022/05/21 12:36:40;;;;;;;7.90;2.33;;;18.60;99.90;;;;;;4961934;28;20054;-37
2022/05/21 12:39:11;;;;;;;9.00;2.00;;;18.80;99.90;;;;;;4962191;28;20526;-34
2022/05/21 12:41:42;;;;;;;7.20;1.73;;;18.80;99.90;;;;;;4960550;28;20039;-30
2022/05/21 12:44:08;;;;;;;8.60;2.00;;;18.60;99.90;;;;;;4959348;28;20034;-32
2022/05/21 12:46:35;;;;;;;7.55;1.48;;;18.50;99.90;;;;;;4962057;28;20030;-30
2022/05/21 12:49:11;;;;;;;11.07;2.53;;;18.70;99.90;;;;;;4959490;28;20492;-34
2022/05/21 12:51:42;;;;;;;10.07;2.20;;;18.40;99.90;;;;;;4959674;28;20030;-38
2022/05/21 12:54:24;;;;;;;11.07;1.60;;;18.20;99.90;;;;;;4964604;28;20420;-30
2022/05/21 12:56:50;;;;;;;9.23;2.30;;;18.40;99.90;;;;;;4962778;28;20479;-34
2022/05/21 12:59:27;;;;;;;6.80;1.80;;;18.70;99.90;;;;;;4961300;28;20058;-35
2022/05/21 13:02:01;;;;;;;9.13;1.80;;;19.30;99.90;;;;;;4968055;28;20486;-33
2022/05/21 13:04:38;;;;;;;12.63;2.00;;;19.60;99.90;;;;;;4968762;28;20023;-37
2022/05/21 13:07:26;;;;;;;7.20;1.52;;;19.40;99.90;;;;;;4967252;28;20034;-33
2022/05/21 13:09:59;;;;;;;6.90;1.45;;;19.30;99.90;;;;;;4967186;28;20043;-31
2022/05/21 13:12:28;;;;;;;7.93;1.65;;;19.00;99.90;;;;;;4967485;28;20027;-31
2022/05/21 13:14:54;;;;;;;16.00;3.10;;;18.90;99.90;;;;;;4966968;28;20050;-45
2022/05/21 13:17:39;;;;;;;5.38;1.80;;;19.00;99.90;;;;;;4966671;28;20034;-34
2022/05/21 13:20:38;;;;;;;8.65;2.05;;;19.20;99.90;;;;;;4962793;28;20030;-32
2022/05/21 13:23:19;;;;;;;14.05;2.13;;;19.10;99.90;;;;;;4954022;28;20026;-36
2022/05/21 13:25:55;;;;;;;9.73;1.80;;;18.90;99.90;;;;;;4965073;28;20027;-29
2022/05/21 13:28:23;;;;;;;11.13;2.35;;;19.00;99.90;;;;;;4971591;28;20038;-32
2022/05/21 13:30:51;;;;;;;3.97;1.80;;;19.00;99.90;;;;;;4965605;28;20105;-32